createdAt,value
2023-03-26T00:01:05.808Z,8.30
2023-03-26T00:05:14.617Z,8.30
2023-03-26T00:09:21.387Z,8.40
2023-03-26T00:13:28.075Z,8.40
2023-03-26T00:17:34.812Z,8.40
2023-03-26T00:21:41.726Z,8.50
2023-03-26T00:25:50.890Z,8.50
2023-03-26T00:29:59.617Z,8.50
2023-03-26T00:34:06.856Z,8.50
2023-03-26T00:38:14.768Z,8.50
2023-03-26T00:42:21.409Z,8.50
2023-03-26T00:46:31.191Z,8.40
2023-03-26T00:50:37.906Z,8.50
2023-03-26T00:54:48.452Z,8.40
2023-03-26T00:58:55.142Z,8.50
2023-03-26T01:03:04.546Z,8.50
2023-03-26T01:07:14.156Z,8.50
2023-03-26T01:11:27.963Z,8.50
2023-03-26T01:15:37.279Z,8.50
2023-03-26T01:19:57.124Z,8.50
2023-03-26T01:24:05.846Z,8.50
2023-03-26T01:28:13.579Z,8.50
2023-03-26T01:32:48.289Z,8.40
2023-03-26T01:37:13.114Z,8.40
2023-03-26T01:41:23.785Z,8.40
2023-03-26T01:45:38.152Z,8.50
2023-03-26T01:49:44.853Z,8.50
2023-03-26T01:53:53.069Z,8.50
2023-03-26T01:58:16.215Z,8.50
2023-03-26T02:02:38.763Z,8.00
2023-03-26T02:06:51.671Z,8.50
2023-03-26T02:11:01.142Z,8.50
2023-03-26T02:15:08.512Z,8.50
2023-03-26T02:19:21.405Z,8.50
2023-03-26T02:23:29.632Z,8.60
2023-03-26T02:27:37.770Z,8.60
2023-03-26T02:31:44.439Z,8.60
2023-03-26T02:35:51.170Z,8.60
2023-03-26T02:39:57.862Z,8.60
2023-03-26T02:44:05.765Z,8.50
2023-03-26T02:48:13.139Z,8.50
2023-03-26T02:52:19.904Z,8.50
2023-03-26T02:56:26.548Z,8.50
2023-03-26T03:00:34.360Z,8.50
2023-03-26T03:04:41.068Z,8.50
2023-03-26T03:08:47.832Z,8.50
2023-03-26T03:12:55.025Z,8.50
2023-03-26T03:17:01.747Z,8.50
2023-03-26T03:21:08.597Z,8.60
2023-03-26T03:25:17.445Z,8.60
2023-03-26T03:29:24.234Z,8.60
2023-03-26T03:33:31.356Z,8.70
2023-03-26T03:37:38.038Z,8.70
2023-03-26T03:41:44.781Z,8.70
2023-03-26T03:45:51.643Z,8.70
2023-03-26T03:50:00.229Z,8.70
2023-03-26T03:54:08.496Z,8.70
2023-03-26T03:58:21.701Z,8.80
2023-03-26T04:02:34.780Z,8.80
2023-03-26T04:06:41.758Z,8.80
2023-03-26T04:10:49.551Z,8.80
2023-03-26T04:14:56.905Z,8.90
2023-03-26T04:19:03.988Z,8.80
2023-03-26T04:23:14.148Z,8.80
2023-03-26T04:27:27.286Z,8.80
2023-03-26T04:31:34.195Z,8.90
2023-03-26T04:35:44.283Z,8.90
2023-03-26T04:39:50.996Z,8.90
2023-03-26T04:43:57.942Z,8.80
2023-03-26T04:48:07.280Z,8.70
2023-03-26T04:52:14.821Z,8.60
2023-03-26T04:56:35.292Z,8.60
2023-03-26T05:00:43.129Z,8.60
2023-03-26T05:04:50.011Z,8.60
2023-03-26T05:08:56.706Z,8.50
2023-03-26T05:13:03.394Z,8.50
2023-03-26T05:17:14.945Z,8.50
2023-03-26T05:21:22.396Z,8.50
2023-03-26T05:25:29.354Z,8.50
2023-03-26T05:29:35.983Z,8.50
2023-03-26T05:33:42.773Z,8.50
2023-03-26T05:37:51.376Z,8.50
2023-03-26T05:41:58.065Z,8.60
2023-03-26T05:46:04.970Z,8.60
2023-03-26T05:50:12.069Z,8.60
2023-03-26T05:54:18.739Z,8.70
2023-03-26T05:58:30.351Z,8.70
2023-03-26T06:02:37.079Z,8.60
2023-03-26T06:06:44.864Z,8.60
2023-03-26T06:10:57.623Z,8.70
2023-03-26T06:15:04.635Z,8.70
2023-03-26T06:19:11.364Z,8.70
2023-03-26T06:23:19.140Z,8.70
2023-03-26T06:27:25.839Z,8.70
2023-03-26T06:31:32.519Z,8.70
2023-03-26T06:35:39.391Z,8.70
2023-03-26T06:39:46.095Z,8.70
2023-03-26T06:43:52.948Z,8.80
2023-03-26T06:48:00.146Z,8.90
2023-03-26T06:52:06.792Z,8.90
2023-03-26T06:56:13.559Z,8.90
2023-03-26T07:00:21.014Z,8.90
2023-03-26T07:04:27.824Z,9.00
2023-03-26T07:08:34.595Z,9.00
2023-03-26T07:12:42.436Z,9.10
2023-03-26T07:16:49.227Z,9.10
2023-03-26T07:20:56.476Z,9.20
2023-03-26T07:25:03.689Z,9.20
2023-03-26T07:29:34.258Z,9.30
2023-03-26T07:33:51.525Z,9.40
2023-03-26T07:38:21.157Z,9.40
2023-03-26T07:42:43.032Z,9.40
2023-03-26T07:46:53.218Z,9.40
2023-03-26T07:51:00.364Z,9.50
2023-03-26T07:55:07.931Z,9.50
2023-03-26T07:59:36.901Z,9.60
2023-03-26T08:04:26.310Z,9.70
2023-03-26T08:08:47.097Z,9.80
2023-03-26T08:13:01.016Z,9.80
2023-03-26T08:17:10.664Z,9.90
2023-03-26T08:21:23.610Z,10.00
2023-03-26T08:26:10.379Z,10.10
2023-03-26T08:30:22.491Z,10.00
2023-03-26T08:34:29.159Z,9.90
2023-03-26T08:38:35.895Z,9.80
2023-03-26T08:43:05.191Z,9.50
2023-03-26T08:47:37.247Z,9.40
2023-03-26T08:52:02.360Z,9.40
2023-03-26T08:56:26.459Z,9.30
2023-03-26T09:00:41.731Z,9.40
2023-03-26T09:04:57.469Z,9.50
2023-03-26T09:09:23.039Z,9.60
2023-03-26T09:13:54.526Z,9.70
2023-03-26T09:18:28.938Z,9.80
2023-03-26T09:23:08.659Z,9.80
2023-03-26T09:27:34.300Z,9.90
2023-03-26T09:32:07.457Z,9.90
2023-03-26T09:36:33.023Z,9.80
2023-03-26T09:41:08.602Z,9.80
2023-03-26T09:45:37.356Z,9.60
2023-03-26T09:50:25.870Z,9.50
2023-03-26T09:54:44.751Z,9.50
2023-03-26T09:58:51.400Z,9.40
2023-03-26T10:03:08.145Z,9.40
2023-03-26T10:07:24.044Z,9.50
2023-03-26T10:12:00.781Z,9.20
2023-03-26T10:16:31.316Z,9.10
2023-03-26T10:20:46.316Z,8.90
2023-03-26T10:25:22.055Z,8.80
2023-03-26T10:29:53.731Z,9.00
2023-03-26T10:34:37.307Z,9.00
2023-03-26T10:39:03.068Z,9.10
2023-03-26T10:43:31.340Z,8.90
2023-03-26T10:48:08.962Z,8.90
2023-03-26T10:52:22.417Z,8.90
2023-03-26T10:56:46.184Z,8.90
2023-03-26T11:01:03.473Z,8.80
2023-03-26T11:05:23.260Z,8.90
2023-03-26T11:09:41.805Z,9.00
2023-03-26T11:14:09.564Z,9.30
2023-03-26T11:18:22.873Z,9.40
2023-03-26T11:22:46.411Z,9.50
2023-03-26T11:27:15.216Z,9.40
2023-03-26T11:31:28.726Z,9.30
2023-03-26T11:35:41.749Z,9.20
2023-03-26T11:39:55.140Z,9.20
2023-03-26T11:44:13.282Z,9.20
2023-03-26T11:48:31.730Z,9.20
2023-03-26T11:52:38.432Z,9.00
2023-03-26T11:57:06.022Z,9.00
2023-03-26T12:01:16.602Z,7.80
2023-03-26T12:05:26.630Z,8.90
2023-03-26T12:09:33.408Z,8.90
2023-03-26T12:13:44.081Z,8.80
2023-03-26T12:17:56.034Z,8.70
2023-03-26T12:22:02.817Z,8.60
2023-03-26T12:26:17.359Z,8.50
2023-03-26T12:30:33.881Z,8.50
2023-03-26T12:34:41.058Z,8.50
2023-03-26T12:40:06.234Z,8.60
2023-03-26T12:44:47.302Z,8.70
2023-03-26T12:48:01.599Z,8.80
2023-03-26T12:52:39.540Z,8.90
2023-03-26T12:57:12.111Z,9.10
2023-03-26T13:01:41.955Z,9.20
2023-03-26T13:06:02.649Z,9.20
2023-03-26T13:10:12.386Z,9.40
2023-03-26T13:14:38.935Z,9.60
2023-03-26T13:19:01.138Z,9.70
2023-03-26T13:23:32.294Z,9.80
2023-03-26T13:27:44.847Z,9.90
2023-03-26T13:32:05.781Z,10.00
2023-03-26T13:36:23.755Z,10.20
2023-03-26T13:40:52.996Z,10.20
2023-03-26T13:45:43.621Z,10.30
2023-03-26T13:49:54.742Z,10.20
2023-03-26T13:54:24.118Z,10.00
2023-03-26T13:58:44.399Z,9.80
2023-03-26T14:03:02.968Z,9.90
2023-03-26T14:07:22.489Z,9.70
2023-03-26T14:11:44.383Z,9.70
2023-03-26T14:16:26.353Z,9.60
2023-03-26T14:20:51.410Z,9.60
2023-03-26T14:25:08.398Z,9.60
2023-03-26T14:29:33.912Z,9.80
2023-03-26T14:33:59.645Z,10.10
2023-03-26T14:38:40.506Z,10.20
2023-03-26T14:42:56.385Z,10.00
2023-03-26T14:47:21.318Z,9.80
2023-03-26T14:51:43.038Z,9.50
2023-03-26T14:56:27.495Z,9.40
2023-03-26T15:01:06.642Z,9.20
2023-03-26T15:06:03.297Z,9.10
2023-03-26T15:10:41.089Z,9.10
2023-03-26T15:15:21.687Z,9.00
2023-03-26T15:19:56.071Z,9.00
2023-03-26T15:24:28.538Z,9.00
2023-03-26T15:29:09.737Z,8.90
2023-03-26T15:33:47.236Z,8.80
2023-03-26T15:38:28.294Z,8.80
2023-03-26T15:42:53.706Z,8.50
2023-03-26T15:47:29.445Z,8.60
2023-03-26T15:52:03.867Z,8.50
2023-03-26T15:56:10.713Z,8.40
2023-03-26T16:00:30.366Z,8.40
2023-03-26T16:04:50.457Z,8.30
2023-03-26T16:09:38.822Z,8.30
2023-03-26T16:14:12.507Z,8.20
2023-03-26T16:18:27.570Z,8.10
2023-03-26T16:23:01.615Z,8.10
2023-03-26T16:27:14.302Z,8.00
2023-03-26T16:31:37.507Z,8.00
2023-03-26T16:36:18.394Z,7.80
2023-03-26T16:40:28.260Z,7.80
2023-03-26T16:45:06.380Z,7.90
2023-03-26T16:49:37.855Z,7.90
2023-03-26T16:54:12.979Z,7.80
2023-03-26T16:59:06.417Z,7.80
2023-03-26T17:03:13.479Z,7.70
2023-03-26T17:07:37.156Z,7.50
2023-03-26T17:11:57.451Z,7.40
2023-03-26T17:16:18.607Z,7.40
2023-03-26T17:20:37.358Z,7.30
2023-03-26T17:24:57.369Z,7.30
2023-03-26T17:29:28.663Z,7.20
2023-03-26T17:33:38.731Z,7.10
2023-03-26T17:37:48.053Z,7.00
2023-03-26T17:42:10.417Z,7.00
2023-03-26T17:46:34.686Z,6.90
2023-03-26T17:50:49.157Z,6.90
2023-03-26T17:54:56.988Z,6.70
2023-03-26T17:59:11.819Z,6.40
2023-03-26T18:03:43.940Z,6.60
2023-03-26T18:08:19.580Z,6.60
2023-03-26T18:12:50.116Z,6.60
2023-03-26T18:17:00.177Z,6.50
2023-03-26T18:21:07.558Z,6.50
2023-03-26T18:25:32.203Z,6.50
2023-03-26T18:29:44.433Z,6.60
2023-03-26T18:33:56.969Z,6.50
2023-03-26T18:38:04.516Z,6.40
2023-03-26T18:42:23.331Z,6.30
2023-03-26T18:46:33.001Z,6.20
2023-03-26T18:50:42.008Z,6.20
2023-03-26T18:54:52.102Z,6.20
2023-03-26T18:59:00.414Z,6.20
2023-03-26T19:03:08.243Z,6.10
2023-03-26T19:07:22.311Z,6.10
2023-03-26T19:11:30.253Z,6.10
2023-03-26T19:15:36.965Z,6.00
2023-03-26T19:19:43.649Z,6.00
2023-03-26T19:23:53.053Z,5.90
2023-03-26T19:27:59.818Z,5.70
2023-03-26T19:32:16.919Z,6.20
2023-03-26T19:36:29.616Z,5.60
2023-03-26T19:40:36.755Z,5.40
2023-03-26T19:44:44.077Z,5.20
2023-03-26T19:48:53.309Z,5.20
2023-03-26T19:53:32.434Z,5.10
2023-03-26T19:57:39.097Z,5.20
2023-03-26T20:01:46.247Z,5.10
2023-03-26T20:05:52.951Z,5.00
2023-03-26T20:10:01.071Z,4.90
2023-03-26T20:14:16.803Z,4.90
2023-03-26T20:18:23.864Z,4.90
2023-03-26T20:22:31.454Z,4.90
2023-03-26T20:26:38.101Z,4.00
2023-03-26T20:30:46.695Z,4.90
2023-03-26T20:34:53.451Z,4.80
2023-03-26T20:39:00.790Z,4.80
2023-03-26T20:43:18.292Z,4.60
2023-03-26T20:47:25.314Z,4.70
2023-03-26T20:51:32.015Z,4.70
2023-03-26T20:55:38.669Z,4.70
2023-03-26T20:59:45.708Z,4.80
2023-03-26T21:03:52.398Z,4.70
2023-03-26T21:08:00.297Z,4.70
2023-03-26T21:12:29.615Z,4.70
2023-03-26T21:16:37.295Z,4.70
2023-03-26T21:20:51.368Z,4.70
2023-03-26T21:25:43.235Z,4.60
2023-03-26T21:29:50.221Z,4.50
2023-03-26T21:33:57.260Z,4.40
2023-03-26T21:38:05.410Z,4.30
2023-03-26T21:42:13.037Z,4.30
2023-03-26T21:46:20.445Z,4.20
2023-03-26T21:50:27.593Z,4.20
2023-03-26T21:54:34.530Z,4.00
2023-03-26T21:59:03.656Z,4.00
2023-03-26T22:03:25.350Z,3.90
2023-03-26T22:08:01.748Z,3.80
2023-03-26T22:12:08.803Z,3.80
2023-03-26T22:16:16.724Z,3.70
2023-03-26T22:20:28.013Z,3.50
2023-03-26T22:24:34.637Z,3.40
2023-03-26T22:28:41.485Z,3.30
2023-03-26T22:32:48.693Z,3.40
2023-03-26T22:36:55.421Z,3.30
2023-03-26T22:41:02.532Z,3.30
2023-03-26T22:45:09.969Z,3.30
2023-03-26T22:49:17.621Z,3.20
2023-03-26T22:53:25.062Z,2.30
2023-03-26T22:57:31.891Z,3.20
2023-03-26T23:01:38.982Z,3.10
2023-03-26T23:05:56.034Z,3.10
2023-03-26T23:10:02.982Z,3.10
2023-03-26T23:14:09.643Z,2.10
2023-03-26T23:18:17.220Z,2.90
2023-03-26T23:22:24.430Z,3.00
2023-03-26T23:26:43.942Z,2.90
2023-03-26T23:30:57.008Z,2.90
2023-03-26T23:35:04.641Z,2.70
2023-03-26T23:39:11.533Z,2.90
2023-03-26T23:43:21.510Z,2.80
2023-03-26T23:47:34.185Z,2.90
2023-03-26T23:51:42.098Z,2.80
2023-03-26T23:55:49.812Z,2.90
2023-03-26T23:59:56.530Z,2.90
